sensor_id;sensor_type;location;lat;lon;timestamp;temperature;humidity
37378;DHT22;23248;48.120;14.854;2022-12-29T00:01:45;-0.80;99.90
37378;DHT22;23248;48.120;14.854;2022-12-29T00:04:11;-0.70;99.90
37378;DHT22;23248;48.120;14.854;2022-12-29T00:06:38;-0.70;99.90
37378;DHT22;23248;48.120;14.854;2022-12-29T00:09:03;-0.80;99.90
37378;DHT22;23248;48.120;14.854;2022-12-29T00:11:29;-0.90;99.90
37378;DHT22;23248;48.120;14.854;2022-12-29T00:13:55;-1.00;99.90
37378;DHT22;23248;48.120;14.854;2022-12-29T00:16:43;-0.90;99.90
37378;DHT22;23248;48.120;14.854;2022-12-29T00:19:09;-0.80;99.90
37378;DHT22;23248;48.120;14.854;2022-12-29T00:21:54;-0.80;99.90
37378;DHT22;23248;48.120;14.854;2022-12-29T00:24:39;-0.70;99.90
37378;DHT22;23248;48.120;14.854;2022-12-29T00:27:23;-0.70;99.90
37378;DHT22;23248;48.120;14.854;2022-12-29T00:30:10;-0.70;99.90
37378;DHT22;23248;48.120;14.854;2022-12-29T00:32:55;-0.70;99.90
37378;DHT22;23248;48.120;14.854;2022-12-29T00:35:41;-0.80;99.90
37378;DHT22;23248;48.120;14.854;2022-12-29T00:38:08;-0.80;99.90
37378;DHT22;23248;48.120;14.854;2022-12-29T00:40:54;-0.80;99.90
37378;DHT22;23248;48.120;14.854;2022-12-29T00:43:38;-0.80;99.90
37378;DHT22;23248;48.120;14.854;2022-12-29T00:46:22;-0.80;99.90
37378;DHT22;23248;48.120;14.854;2022-12-29T00:48:47;-0.80;99.90
37378;DHT22;23248;48.120;14.854;2022-12-29T00:51:31;-0.80;99.90
37378;DHT22;23248;48.120;14.854;2022-12-29T00:53:57;-0.80;99.90
37378;DHT22;23248;48.120;14.854;2022-12-29T00:56:22;-0.80;99.90
37378;DHT22;23248;48.120;14.854;2022-12-29T00:58:48;-0.80;99.90
37378;DHT22;23248;48.120;14.854;2022-12-29T01:01:13;-0.80;99.90
37378;DHT22;23248;48.120;14.854;2022-12-29T01:03:39;-0.70;99.90
37378;DHT22;23248;48.120;14.854;2022-12-29T01:06:06;-0.70;99.90
37378;DHT22;23248;48.120;14.854;2022-12-29T01:08:32;-0.70;99.90
37378;DHT22;23248;48.120;14.854;2022-12-29T01:10:58;-0.70;99.90
37378;DHT22;23248;48.120;14.854;2022-12-29T01:13:24;-0.70;99.90
37378;DHT22;23248;48.120;14.854;2022-12-29T01:15:50;-0.60;99.90
37378;DHT22;23248;48.120;14.854;2022-12-29T01:18:16;-0.60;99.90
37378;DHT22;23248;48.120;14.854;2022-12-29T01:20:42;-0.60;99.90
37378;DHT22;23248;48.120;14.854;2022-12-29T01:23:07;-0.70;99.90
37378;DHT22;23248;48.120;14.854;2022-12-29T01:25:33;-0.70;99.90
37378;DHT22;23248;48.120;14.854;2022-12-29T01:27:58;-0.60;99.90
37378;DHT22;23248;48.120;14.854;2022-12-29T01:30:24;-0.70;99.90
37378;DHT22;23248;48.120;14.854;2022-12-29T01:32:49;-0.70;99.90
37378;DHT22;23248;48.120;14.854;2022-12-29T01:35:15;-0.80;99.90
37378;DHT22;23248;48.120;14.854;2022-12-29T01:37:41;-0.80;99.90
37378;DHT22;23248;48.120;14.854;2022-12-29T01:40:06;-0.70;99.90
37378;DHT22;23248;48.120;14.854;2022-12-29T01:42:32;-0.60;99.90
37378;DHT22;23248;48.120;14.854;2022-12-29T01:44:59;-0.60;99.90
37378;DHT22;23248;48.120;14.854;2022-12-29T01:47:29;-0.50;99.90
37378;DHT22;23248;48.120;14.854;2022-12-29T01:49:58;-0.50;99.90
37378;DHT22;23248;48.120;14.854;2022-12-29T01:52:24;-0.60;99.90
37378;DHT22;23248;48.120;14.854;2022-12-29T01:54:52;-0.70;99.90
37378;DHT22;23248;48.120;14.854;2022-12-29T01:57:26;-0.70;99.90
37378;DHT22;23248;48.120;14.854;2022-12-29T02:00:01;-0.70;99.90
37378;DHT22;23248;48.120;14.854;2022-12-29T02:02:28;-0.70;99.90
37378;DHT22;23248;48.120;14.854;2022-12-29T02:04:54;-0.80;99.90
37378;DHT22;23248;48.120;14.854;2022-12-29T02:07:21;-0.80;99.90
37378;DHT22;23248;48.120;14.854;2022-12-29T02:09:48;-0.80;99.90
37378;DHT22;23248;48.120;14.854;2022-12-29T02:12:14;-0.80;99.90
37378;DHT22;23248;48.120;14.854;2022-12-29T02:14:41;-0.80;99.90
37378;DHT22;23248;48.120;14.854;2022-12-29T02:30:15;-0.80;99.90
37378;DHT22;23248;48.120;14.854;2022-12-29T02:36:12;-0.70;99.90
37378;DHT22;23248;48.120;14.854;2022-12-29T02:38:28;-0.70;99.90
37378;DHT22;23248;48.120;14.854;2022-12-29T02:40:57;-0.60;99.90
37378;DHT22;23248;48.120;14.854;2022-12-29T02:45:58;-0.70;99.90
37378;DHT22;23248;48.120;14.854;2022-12-29T02:48:27;-0.70;99.90
37378;DHT22;23248;48.120;14.854;2022-12-29T02:51:02;-0.70;99.90
37378;DHT22;23248;48.120;14.854;2022-12-29T02:53:28;-0.80;99.90
37378;DHT22;23248;48.120;14.854;2022-12-29T02:56:13;-0.70;99.90
37378;DHT22;23248;48.120;14.854;2022-12-29T02:58:39;-0.80;99.90
37378;DHT22;23248;48.120;14.854;2022-12-29T03:01:26;-0.70;99.90
37378;DHT22;23248;48.120;14.854;2022-12-29T03:04:13;-0.70;99.90
37378;DHT22;23248;48.120;14.854;2022-12-29T03:09:30;-0.80;99.90
37378;DHT22;23248;48.120;14.854;2022-12-29T03:12:07;-0.80;99.90
37378;DHT22;23248;48.120;14.854;2022-12-29T03:20:21;-0.90;99.90
37378;DHT22;23248;48.120;14.854;2022-12-29T03:22:49;-0.90;99.90
37378;DHT22;23248;48.120;14.854;2022-12-29T03:25:30;-1.00;99.90
37378;DHT22;23248;48.120;14.854;2022-12-29T03:27:57;-1.00;99.90
37378;DHT22;23248;48.120;14.854;2022-12-29T03:30:24;-1.00;99.90
37378;DHT22;23248;48.120;14.854;2022-12-29T03:32:59;-1.00;99.90
37378;DHT22;23248;48.120;14.854;2022-12-29T03:35:27;-0.90;99.90
37378;DHT22;23248;48.120;14.854;2022-12-29T03:37:55;-0.90;99.90
37378;DHT22;23248;48.120;14.854;2022-12-29T03:40:23;-0.80;99.90
37378;DHT22;23248;48.120;14.854;2022-12-29T03:42:49;-0.90;99.90
37378;DHT22;23248;48.120;14.854;2022-12-29T03:45:15;-0.90;99.90
37378;DHT22;23248;48.120;14.854;2022-12-29T03:47:41;-1.00;99.90
37378;DHT22;23248;48.120;14.854;2022-12-29T03:50:06;-1.00;99.90
37378;DHT22;23248;48.120;14.854;2022-12-29T03:52:34;-1.10;99.90
37378;DHT22;23248;48.120;14.854;2022-12-29T03:54:59;-1.10;99.90
37378;DHT22;23248;48.120;14.854;2022-12-29T03:57:25;-1.10;99.90
37378;DHT22;23248;48.120;14.854;2022-12-29T03:59:50;-1.10;99.90
37378;DHT22;23248;48.120;14.854;2022-12-29T04:02:16;-1.10;99.90
37378;DHT22;23248;48.120;14.854;2022-12-29T04:04:41;-1.10;99.90
37378;DHT22;23248;48.120;14.854;2022-12-29T04:07:07;-1.10;99.90
37378;DHT22;23248;48.120;14.854;2022-12-29T04:09:32;-1.10;99.90
37378;DHT22;23248;48.120;14.854;2022-12-29T04:11:58;-1.10;99.90
37378;DHT22;23248;48.120;14.854;2022-12-29T04:14:24;-1.10;99.90
37378;DHT22;23248;48.120;14.854;2022-12-29T04:16:49;-1.10;99.90
37378;DHT22;23248;48.120;14.854;2022-12-29T04:19:15;-1.10;99.90
37378;DHT22;23248;48.120;14.854;2022-12-29T04:21:40;-1.20;99.90
37378;DHT22;23248;48.120;14.854;2022-12-29T04:24:06;-1.20;99.90
37378;DHT22;23248;48.120;14.854;2022-12-29T04:26:32;-1.20;99.90
37378;DHT22;23248;48.120;14.854;2022-12-29T04:28:57;-1.20;99.90
37378;DHT22;23248;48.120;14.854;2022-12-29T04:31:23;-1.20;99.90
37378;DHT22;23248;48.120;14.854;2022-12-29T04:33:48;-1.20;99.90
37378;DHT22;23248;48.120;14.854;2022-12-29T04:36:14;-1.10;99.90
37378;DHT22;23248;48.120;14.854;2022-12-29T04:38:40;-1.10;99.90
37378;DHT22;23248;48.120;14.854;2022-12-29T04:41:05;-1.10;99.90
37378;DHT22;23248;48.120;14.854;2022-12-29T04:43:31;-1.10;99.90
37378;DHT22;23248;48.120;14.854;2022-12-29T04:45:56;-1.10;99.90
37378;DHT22;23248;48.120;14.854;2022-12-29T04:48:22;-1.10;99.90
37378;DHT22;23248;48.120;14.854;2022-12-29T04:50:48;-1.10;99.90
37378;DHT22;23248;48.120;14.854;2022-12-29T04:53:15;-1.10;99.90
37378;DHT22;23248;48.120;14.854;2022-12-29T04:55:41;-1.10;99.90
37378;DHT22;23248;48.120;14.854;2022-12-29T04:58:06;-1.00;99.90
37378;DHT22;23248;48.120;14.854;2022-12-29T05:00:32;-1.00;99.90
37378;DHT22;23248;48.120;14.854;2022-12-29T05:02:58;-1.00;99.90
37378;DHT22;23248;48.120;14.854;2022-12-29T05:05:23;-1.00;99.90
37378;DHT22;23248;48.120;14.854;2022-12-29T05:07:49;-0.90;99.90
37378;DHT22;23248;48.120;14.854;2022-12-29T05:10:14;-0.90;99.90
37378;DHT22;23248;48.120;14.854;2022-12-29T05:12:40;-1.00;99.90
37378;DHT22;23248;48.120;14.854;2022-12-29T05:15:06;-1.00;99.90
37378;DHT22;23248;48.120;14.854;2022-12-29T05:17:32;-1.10;99.90
37378;DHT22;23248;48.120;14.854;2022-12-29T05:19:58;-1.10;99.90
37378;DHT22;23248;48.120;14.854;2022-12-29T05:22:24;-1.20;99.90
37378;DHT22;23248;48.120;14.854;2022-12-29T05:24:50;-1.10;99.90
37378;DHT22;23248;48.120;14.854;2022-12-29T05:27:16;-1.10;99.90
37378;DHT22;23248;48.120;14.854;2022-12-29T05:29:41;-1.20;99.90
37378;DHT22;23248;48.120;14.854;2022-12-29T05:32:07;-1.20;99.90
37378;DHT22;23248;48.120;14.854;2022-12-29T05:34:32;-1.30;99.90
37378;DHT22;23248;48.120;14.854;2022-12-29T05:36:58;-1.30;99.90
37378;DHT22;23248;48.120;14.854;2022-12-29T05:39:23;-1.30;99.90
37378;DHT22;23248;48.120;14.854;2022-12-29T05:41:49;-1.40;99.90
37378;DHT22;23248;48.120;14.854;2022-12-29T05:44:15;-1.50;99.90
37378;DHT22;23248;48.120;14.854;2022-12-29T05:46:40;-1.40;99.90
37378;DHT22;23248;48.120;14.854;2022-12-29T05:49:06;-1.50;99.90
37378;DHT22;23248;48.120;14.854;2022-12-29T05:51:31;-1.50;99.90
37378;DHT22;23248;48.120;14.854;2022-12-29T05:53:57;-1.50;99.90
37378;DHT22;23248;48.120;14.854;2022-12-29T05:56:23;-1.50;99.90
37378;DHT22;23248;48.120;14.854;2022-12-29T05:58:48;-1.50;99.90
37378;DHT22;23248;48.120;14.854;2022-12-29T06:01:14;-1.40;99.90
37378;DHT22;23248;48.120;14.854;2022-12-29T06:03:39;-1.50;99.90
37378;DHT22;23248;48.120;14.854;2022-12-29T06:06:05;-1.50;99.90
37378;DHT22;23248;48.120;14.854;2022-12-29T06:08:31;-1.50;99.90
37378;DHT22;23248;48.120;14.854;2022-12-29T06:10:56;-1.50;99.90
37378;DHT22;23248;48.120;14.854;2022-12-29T06:13:22;-1.50;99.90
37378;DHT22;23248;48.120;14.854;2022-12-29T06:15:48;-1.50;99.90
37378;DHT22;23248;48.120;14.854;2022-12-29T06:18:14;-1.40;99.90
37378;DHT22;23248;48.120;14.854;2022-12-29T06:20:39;-1.50;99.90
37378;DHT22;23248;48.120;14.854;2022-12-29T06:23:05;-1.40;99.90
37378;DHT22;23248;48.120;14.854;2022-12-29T06:25:31;-1.50;99.90
37378;DHT22;23248;48.120;14.854;2022-12-29T06:27:57;-1.50;99.90
37378;DHT22;23248;48.120;14.854;2022-12-29T06:30:23;-1.40;99.90
37378;DHT22;23248;48.120;14.854;2022-12-29T06:32:48;-1.40;99.90
37378;DHT22;23248;48.120;14.854;2022-12-29T06:35:14;-1.50;99.90
37378;DHT22;23248;48.120;14.854;2022-12-29T06:37:40;-1.40;99.90
37378;DHT22;23248;48.120;14.854;2022-12-29T06:40:05;-1.40;99.90
37378;DHT22;23248;48.120;14.854;2022-12-29T06:42:31;-1.50;99.90
37378;DHT22;23248;48.120;14.854;2022-12-29T06:44:56;-1.40;99.90
37378;DHT22;23248;48.120;14.854;2022-12-29T06:47:24;-1.40;99.90
37378;DHT22;23248;48.120;14.854;2022-12-29T06:49:49;-1.40;99.90
37378;DHT22;23248;48.120;14.854;2022-12-29T06:52:15;-1.30;99.90
37378;DHT22;23248;48.120;14.854;2022-12-29T06:54:40;-1.30;99.90
37378;DHT22;23248;48.120;14.854;2022-12-29T06:57:06;-1.30;99.90
37378;DHT22;23248;48.120;14.854;2022-12-29T06:59:32;-1.20;99.90
37378;DHT22;23248;48.120;14.854;2022-12-29T07:01:57;-1.30;99.90
37378;DHT22;23248;48.120;14.854;2022-12-29T07:04:23;-1.30;99.90
37378;DHT22;23248;48.120;14.854;2022-12-29T07:06:48;-1.40;99.90
37378;DHT22;23248;48.120;14.854;2022-12-29T07:09:14;-1.30;99.90
37378;DHT22;23248;48.120;14.854;2022-12-29T07:11:39;-1.40;99.90
37378;DHT22;23248;48.120;14.854;2022-12-29T07:14:05;-1.30;99.90
37378;DHT22;23248;48.120;14.854;2022-12-29T07:16:31;-1.30;99.90
37378;DHT22;23248;48.120;14.854;2022-12-29T07:18:57;-1.30;99.90
37378;DHT22;23248;48.120;14.854;2022-12-29T07:21:24;-1.20;99.90
37378;DHT22;23248;48.120;14.854;2022-12-29T07:23:50;-1.30;99.90
37378;DHT22;23248;48.120;14.854;2022-12-29T07:26:16;-1.40;99.90
37378;DHT22;23248;48.120;14.854;2022-12-29T07:28:44;-1.30;99.90
37378;DHT22;23248;48.120;14.854;2022-12-29T07:31:13;-1.20;99.90
37378;DHT22;23248;48.120;14.854;2022-12-29T07:33:40;-1.20;99.90
37378;DHT22;23248;48.120;14.854;2022-12-29T07:36:06;-1.20;99.90
37378;DHT22;23248;48.120;14.854;2022-12-29T07:38:32;-1.10;99.90
37378;DHT22;23248;48.120;14.854;2022-12-29T07:40:57;-1.00;99.90
37378;DHT22;23248;48.120;14.854;2022-12-29T07:43:23;-1.00;99.90
37378;DHT22;23248;48.120;14.854;2022-12-29T07:45:49;-0.90;99.90
37378;DHT22;23248;48.120;14.854;2022-12-29T07:48:14;-0.90;99.90
37378;DHT22;23248;48.120;14.854;2022-12-29T07:50:40;-0.90;99.90
37378;DHT22;23248;48.120;14.854;2022-12-29T07:53:06;-0.90;99.90
37378;DHT22;23248;48.120;14.854;2022-12-29T07:55:31;-0.80;99.90
37378;DHT22;23248;48.120;14.854;2022-12-29T07:57:57;-0.80;99.90
37378;DHT22;23248;48.120;14.854;2022-12-29T08:00:22;-0.80;99.90
37378;DHT22;23248;48.120;14.854;2022-12-29T08:02:48;-0.70;99.90
37378;DHT22;23248;48.120;14.854;2022-12-29T08:05:14;-0.70;99.90
37378;DHT22;23248;48.120;14.854;2022-12-29T08:07:42;-0.60;99.90
37378;DHT22;23248;48.120;14.854;2022-12-29T08:10:08;-0.60;99.90
37378;DHT22;23248;48.120;14.854;2022-12-29T08:12:33;-0.50;99.90
37378;DHT22;23248;48.120;14.854;2022-12-29T08:14:59;-0.50;99.90
37378;DHT22;23248;48.120;14.854;2022-12-29T08:17:24;-0.30;99.90
37378;DHT22;23248;48.120;14.854;2022-12-29T08:19:50;-0.10;99.90
37378;DHT22;23248;48.120;14.854;2022-12-29T08:22:16;0.10;99.90
37378;DHT22;23248;48.120;14.854;2022-12-29T08:24:41;0.20;99.90
37378;DHT22;23248;48.120;14.854;2022-12-29T08:27:07;0.30;99.90
37378;DHT22;23248;48.120;14.854;2022-12-29T08:29:32;0.50;99.90
37378;DHT22;23248;48.120;14.854;2022-12-29T08:31:58;0.50;99.90
37378;DHT22;23248;48.120;14.854;2022-12-29T08:34:23;0.70;99.90
37378;DHT22;23248;48.120;14.854;2022-12-29T08:36:49;0.80;99.90
37378;DHT22;23248;48.120;14.854;2022-12-29T08:39:15;0.90;99.90
37378;DHT22;23248;48.120;14.854;2022-12-29T08:41:40;0.90;99.90
37378;DHT22;23248;48.120;14.854;2022-12-29T08:44:06;1.10;99.90
37378;DHT22;23248;48.120;14.854;2022-12-29T08:46:32;1.20;99.90
37378;DHT22;23248;48.120;14.854;2022-12-29T08:48:57;1.30;99.90
37378;DHT22;23248;48.120;14.854;2022-12-29T08:51:23;1.40;99.90
37378;DHT22;23248;48.120;14.854;2022-12-29T08:53:48;1.50;99.90
37378;DHT22;23248;48.120;14.854;2022-12-29T08:56:14;1.50;99.90
37378;DHT22;23248;48.120;14.854;2022-12-29T08:58:40;1.60;99.90
37378;DHT22;23248;48.120;14.854;2022-12-29T09:01:06;1.60;99.90
37378;DHT22;23248;48.120;14.854;2022-12-29T09:03:31;1.80;99.90
37378;DHT22;23248;48.120;14.854;2022-12-29T09:05:57;1.80;99.90
37378;DHT22;23248;48.120;14.854;2022-12-29T09:08:22;2.10;99.90
37378;DHT22;23248;48.120;14.854;2022-12-29T09:10:48;2.20;99.90
37378;DHT22;23248;48.120;14.854;2022-12-29T09:13:14;2.40;99.90
37378;DHT22;23248;48.120;14.854;2022-12-29T09:15:40;2.60;99.90
37378;DHT22;23248;48.120;14.854;2022-12-29T09:18:06;2.80;99.90
37378;DHT22;23248;48.120;14.854;2022-12-29T09:20:32;3.00;99.90
37378;DHT22;23248;48.120;14.854;2022-12-29T09:22:58;3.10;99.90
37378;DHT22;23248;48.120;14.854;2022-12-29T09:25:24;3.10;99.90
37378;DHT22;23248;48.120;14.854;2022-12-29T09:27:50;3.00;99.90
37378;DHT22;23248;48.120;14.854;2022-12-29T09:30:17;2.90;99.90
37378;DHT22;23248;48.120;14.854;2022-12-29T09:32:43;3.00;99.90
37378;DHT22;23248;48.120;14.854;2022-12-29T09:35:09;3.20;99.90
37378;DHT22;23248;48.120;14.854;2022-12-29T09:37:34;3.30;99.90
37378;DHT22;23248;48.120;14.854;2022-12-29T09:40:00;3.40;99.90
37378;DHT22;23248;48.120;14.854;2022-12-29T09:42:37;3.50;99.90
37378;DHT22;23248;48.120;14.854;2022-12-29T09:47:30;3.70;99.90
37378;DHT22;23248;48.120;14.854;2022-12-29T09:49:58;3.80;99.90
37378;DHT22;23248;48.120;14.854;2022-12-29T09:52:25;3.80;99.90
37378;DHT22;23248;48.120;14.854;2022-12-29T09:55:04;3.90;99.90
37378;DHT22;23248;48.120;14.854;2022-12-29T09:57:42;3.90;99.90
37378;DHT22;23248;48.120;14.854;2022-12-29T10:00:16;3.80;99.90
37378;DHT22;23248;48.120;14.854;2022-12-29T10:03:05;3.70;99.90
37378;DHT22;23248;48.120;14.854;2022-12-29T10:10:59;4.50;99.90
37378;DHT22;23248;48.120;14.854;2022-12-29T10:13:31;4.80;99.90
37378;DHT22;23248;48.120;14.854;2022-12-29T10:23:35;5.70;99.90
37378;DHT22;23248;48.120;14.854;2022-12-29T10:26:04;5.80;99.90
37378;DHT22;23248;48.120;14.854;2022-12-29T10:28:41;5.80;99.90
37378;DHT22;23248;48.120;14.854;2022-12-29T10:31:15;6.00;99.90
37378;DHT22;23248;48.120;14.854;2022-12-29T10:33:45;6.10;99.90
37378;DHT22;23248;48.120;14.854;2022-12-29T10:44:26;5.80;99.90
37378;DHT22;23248;48.120;14.854;2022-12-29T10:46:55;5.70;99.90
37378;DHT22;23248;48.120;14.854;2022-12-29T10:49:22;5.50;99.90
37378;DHT22;23248;48.120;14.854;2022-12-29T10:51:50;5.30;99.90
37378;DHT22;23248;48.120;14.854;2022-12-29T10:54:28;5.30;99.90
37378;DHT22;23248;48.120;14.854;2022-12-29T10:57:09;5.20;99.90
37378;DHT22;23248;48.120;14.854;2022-12-29T10:59:36;5.10;99.90
37378;DHT22;23248;48.120;14.854;2022-12-29T11:06:59;4.90;99.90
37378;DHT22;23248;48.120;14.854;2022-12-29T11:09:27;4.90;99.90
37378;DHT22;23248;48.120;14.854;2022-12-29T11:11:53;5.00;99.90
37378;DHT22;23248;48.120;14.854;2022-12-29T11:14:36;5.10;99.90
37378;DHT22;23248;48.120;14.854;2022-12-29T11:17:03;5.50;99.90
37378;DHT22;23248;48.120;14.854;2022-12-29T11:19:30;5.90;99.90
37378;DHT22;23248;48.120;14.854;2022-12-29T11:22:11;6.10;99.90
37378;DHT22;23248;48.120;14.854;2022-12-29T11:24:38;6.40;99.90
37378;DHT22;23248;48.120;14.854;2022-12-29T11:27:13;6.50;99.90
37378;DHT22;23248;48.120;14.854;2022-12-29T11:29:40;6.70;99.90
37378;DHT22;23248;48.120;14.854;2022-12-29T11:32:22;6.90;99.90
37378;DHT22;23248;48.120;14.854;2022-12-29T11:34:48;7.00;99.90
37378;DHT22;23248;48.120;14.854;2022-12-29T11:37:16;7.20;99.90
37378;DHT22;23248;48.120;14.854;2022-12-29T11:42:15;7.00;99.90
37378;DHT22;23248;48.120;14.854;2022-12-29T11:44:45;7.00;99.90
37378;DHT22;23248;48.120;14.854;2022-12-29T11:47:13;7.00;99.90
37378;DHT22;23248;48.120;14.854;2022-12-29T11:49:49;7.10;99.90
37378;DHT22;23248;48.120;14.854;2022-12-29T11:52:14;7.20;99.90
37378;DHT22;23248;48.120;14.854;2022-12-29T11:54:40;7.20;99.90
37378;DHT22;23248;48.120;14.854;2022-12-29T11:57:11;7.30;99.90
37378;DHT22;23248;48.120;14.854;2022-12-29T12:00:14;7.40;99.90
37378;DHT22;23248;48.120;14.854;2022-12-29T12:02:44;7.50;99.90
37378;DHT22;23248;48.120;14.854;2022-12-29T12:05:13;7.60;99.90
37378;DHT22;23248;48.120;14.854;2022-12-29T12:07:41;7.90;99.90
37378;DHT22;23248;48.120;14.854;2022-12-29T12:10:18;8.20;99.90
37378;DHT22;23248;48.120;14.854;2022-12-29T12:13:05;8.30;99.90
37378;DHT22;23248;48.120;14.854;2022-12-29T12:15:39;8.60;99.90
37378;DHT22;23248;48.120;14.854;2022-12-29T12:18:08;8.80;99.90
37378;DHT22;23248;48.120;14.854;2022-12-29T12:20:42;8.90;99.90
37378;DHT22;23248;48.120;14.854;2022-12-29T12:23:14;9.00;99.90
37378;DHT22;23248;48.120;14.854;2022-12-29T12:25:59;9.10;99.90
37378;DHT22;23248;48.120;14.854;2022-12-29T12:28:28;9.20;99.90
37378;DHT22;23248;48.120;14.854;2022-12-29T12:30:56;9.20;99.90
37378;DHT22;23248;48.120;14.854;2022-12-29T12:38:42;9.40;99.90
37378;DHT22;23248;48.120;14.854;2022-12-29T12:41:11;9.20;99.90
37378;DHT22;23248;48.120;14.854;2022-12-29T12:43:43;8.90;99.90
37378;DHT22;23248;48.120;14.854;2022-12-29T12:59:19;8.00;99.90
37378;DHT22;23248;48.120;14.854;2022-12-29T13:01:58;7.90;99.90
37378;DHT22;23248;48.120;14.854;2022-12-29T13:04:32;7.80;99.90
37378;DHT22;23248;48.120;14.854;2022-12-29T13:17:30;8.10;99.90
37378;DHT22;23248;48.120;14.854;2022-12-29T13:22:48;8.10;99.90
37378;DHT22;23248;48.120;14.854;2022-12-29T13:30:19;8.50;99.90
37378;DHT22;23248;48.120;14.854;2022-12-29T13:32:51;8.60;99.90
37378;DHT22;23248;48.120;14.854;2022-12-29T13:40:17;8.70;99.90
37378;DHT22;23248;48.120;14.854;2022-12-29T13:42:43;8.50;99.90
37378;DHT22;23248;48.120;14.854;2022-12-29T13:45:12;8.40;99.90
37378;DHT22;23248;48.120;14.854;2022-12-29T13:47:45;8.30;99.90
37378;DHT22;23248;48.120;14.854;2022-12-29T13:50:16;8.20;99.90
37378;DHT22;23248;48.120;14.854;2022-12-29T13:55:20;8.00;99.90
37378;DHT22;23248;48.120;14.854;2022-12-29T13:57:59;7.90;99.90
37378;DHT22;23248;48.120;14.854;2022-12-29T14:00:27;8.00;99.90
37378;DHT22;23248;48.120;14.854;2022-12-29T14:07:47;8.50;99.90
37378;DHT22;23248;48.120;14.854;2022-12-29T14:13:36;8.60;99.90
37378;DHT22;23248;48.120;14.854;2022-12-29T14:15:44;8.60;99.90
37378;DHT22;23248;48.120;14.854;2022-12-29T14:20:36;8.70;99.90
37378;DHT22;23248;48.120;14.854;2022-12-29T14:28:22;8.20;99.90
37378;DHT22;23248;48.120;14.854;2022-12-29T14:30:50;8.10;99.90
37378;DHT22;23248;48.120;14.854;2022-12-29T14:33:16;7.90;99.90
37378;DHT22;23248;48.120;14.854;2022-12-29T14:35:43;7.90;99.90
37378;DHT22;23248;48.120;14.854;2022-12-29T14:38:16;7.70;99.90
37378;DHT22;23248;48.120;14.854;2022-12-29T14:40:43;7.50;99.90
37378;DHT22;23248;48.120;14.854;2022-12-29T14:43:20;7.30;99.90
37378;DHT22;23248;48.120;14.854;2022-12-29T14:45:51;7.10;99.90
37378;DHT22;23248;48.120;14.854;2022-12-29T14:48:21;6.90;99.90
37378;DHT22;23248;48.120;14.854;2022-12-29T14:50:53;6.70;99.90
37378;DHT22;23248;48.120;14.854;2022-12-29T14:56:03;6.00;99.90
37378;DHT22;23248;48.120;14.854;2022-12-29T14:58:29;5.70;99.90
37378;DHT22;23248;48.120;14.854;2022-12-29T15:00:56;5.50;99.90
37378;DHT22;23248;48.120;14.854;2022-12-29T15:08:17;5.00;99.90
37378;DHT22;23248;48.120;14.854;2022-12-29T15:10:45;5.00;99.90
37378;DHT22;23248;48.120;14.854;2022-12-29T15:13:21;4.70;99.90
37378;DHT22;23248;48.120;14.854;2022-12-29T15:15:47;4.70;99.90
37378;DHT22;23248;48.120;14.854;2022-12-29T15:18:14;4.50;99.90
37378;DHT22;23248;48.120;14.854;2022-12-29T15:20:40;4.60;99.90
37378;DHT22;23248;48.120;14.854;2022-12-29T15:23:10;4.50;99.90
37378;DHT22;23248;48.120;14.854;2022-12-29T15:25:44;4.50;99.90
37378;DHT22;23248;48.120;14.854;2022-12-29T15:28:11;4.40;99.90
37378;DHT22;23248;48.120;14.854;2022-12-29T15:30:49;4.30;99.90
37378;DHT22;23248;48.120;14.854;2022-12-29T15:33:18;4.20;99.90
37378;DHT22;23248;48.120;14.854;2022-12-29T15:35:44;4.20;99.90
37378;DHT22;23248;48.120;14.854;2022-12-29T15:38:23;4.30;99.90
37378;DHT22;23248;48.120;14.854;2022-12-29T15:46:13;4.10;99.90
37378;DHT22;23248;48.120;14.854;2022-12-29T15:48:39;4.00;99.90
37378;DHT22;23248;48.120;14.854;2022-12-29T15:51:10;4.00;99.90
37378;DHT22;23248;48.120;14.854;2022-12-29T15:53:40;4.10;99.90
37378;DHT22;23248;48.120;14.854;2022-12-29T15:56:06;3.90;99.90
37378;DHT22;23248;48.120;14.854;2022-12-29T15:58:39;3.90;99.90
37378;DHT22;23248;48.120;14.854;2022-12-29T16:01:15;3.80;99.90
37378;DHT22;23248;48.120;14.854;2022-12-29T16:03:41;3.90;99.90
37378;DHT22;23248;48.120;14.854;2022-12-29T16:06:08;3.90;99.90
37378;DHT22;23248;48.120;14.854;2022-12-29T16:08:38;3.90;99.90
37378;DHT22;23248;48.120;14.854;2022-12-29T16:11:18;3.90;99.90
37378;DHT22;23248;48.120;14.854;2022-12-29T16:13:45;3.90;99.90
37378;DHT22;23248;48.120;14.854;2022-12-29T16:16:14;3.80;99.90
37378;DHT22;23248;48.120;14.854;2022-12-29T16:18:42;3.80;99.90
37378;DHT22;23248;48.120;14.854;2022-12-29T16:21:15;3.70;99.90
37378;DHT22;23248;48.120;14.854;2022-12-29T16:23:41;3.80;99.90
37378;DHT22;23248;48.120;14.854;2022-12-29T16:26:12;3.80;99.90
37378;DHT22;23248;48.120;14.854;2022-12-29T16:28:41;3.70;99.90
37378;DHT22;23248;48.120;14.854;2022-12-29T16:31:16;3.70;99.90
37378;DHT22;23248;48.120;14.854;2022-12-29T16:33:50;3.80;99.90
37378;DHT22;23248;48.120;14.854;2022-12-29T16:36:26;3.80;99.90
37378;DHT22;23248;48.120;14.854;2022-12-29T16:39:15;3.70;99.90
37378;DHT22;23248;48.120;14.854;2022-12-29T16:41:44;3.70;99.90
37378;DHT22;23248;48.120;14.854;2022-12-29T16:44:17;3.60;99.90
37378;DHT22;23248;48.120;14.854;2022-12-29T16:47:01;3.60;99.90
37378;DHT22;23248;48.120;14.854;2022-12-29T16:49:27;3.60;99.90
37378;DHT22;23248;48.120;14.854;2022-12-29T16:51:53;3.50;99.90
37378;DHT22;23248;48.120;14.854;2022-12-29T16:54:21;3.40;99.90
37378;DHT22;23248;48.120;14.854;2022-12-29T16:56:48;3.40;99.90
37378;DHT22;23248;48.120;14.854;2022-12-29T16:59:59;3.40;99.90
37378;DHT22;23248;48.120;14.854;2022-12-29T17:02:00;3.40;99.90
37378;DHT22;23248;48.120;14.854;2022-12-29T17:04:30;3.30;99.90
37378;DHT22;23248;48.120;14.854;2022-12-29T17:06:55;3.30;99.90
37378;DHT22;23248;48.120;14.854;2022-12-29T17:09:22;3.10;99.90
37378;DHT22;23248;48.120;14.854;2022-12-29T17:11:48;3.20;99.90
37378;DHT22;23248;48.120;14.854;2022-12-29T17:16:58;3.00;99.90
37378;DHT22;23248;48.120;14.854;2022-12-29T17:19:32;2.90;99.90
37378;DHT22;23248;48.120;14.854;2022-12-29T17:21:58;2.90;99.90
37378;DHT22;23248;48.120;14.854;2022-12-29T17:24:24;2.90;99.90
37378;DHT22;23248;48.120;14.854;2022-12-29T17:26:51;2.80;99.90
37378;DHT22;23248;48.120;14.854;2022-12-29T17:29:19;2.60;99.90
37378;DHT22;23248;48.120;14.854;2022-12-29T17:31:46;2.50;99.90
37378;DHT22;23248;48.120;14.854;2022-12-29T17:34:12;2.50;99.90
37378;DHT22;23248;48.120;14.854;2022-12-29T17:36:38;2.40;99.90
37378;DHT22;23248;48.120;14.854;2022-12-29T17:39:04;2.40;99.90
37378;DHT22;23248;48.120;14.854;2022-12-29T17:41:30;2.40;99.90
37378;DHT22;23248;48.120;14.854;2022-12-29T17:43:56;2.30;99.90
37378;DHT22;23248;48.120;14.854;2022-12-29T17:46:23;2.40;99.90